createdAt,value
2023-01-13T00:01:24.803Z,100373.88
2023-01-13T00:03:54.543Z,100364.19
2023-01-13T00:06:25.713Z,100366.03
2023-01-13T00:08:53.335Z,100357.13
2023-01-13T00:11:20.412Z,100357.13
2023-01-13T00:13:47.253Z,100373.19
2023-01-13T00:16:17.062Z,100368.84
2023-01-13T00:18:44.439Z,100384.88
2023-01-13T00:21:17.584Z,100380.53
2023-01-13T00:23:44.332Z,100387.72
2023-01-13T00:26:16.339Z,100385.06
2023-01-13T00:28:43.252Z,100387.56
2023-01-13T00:31:13.078Z,100376.19
2023-01-13T00:33:40.274Z,100380.84
2023-01-13T00:36:08.164Z,100380.00
2023-01-13T00:38:36.034Z,100373.81
2023-01-13T00:41:05.944Z,100364.97
2023-01-13T00:43:33.947Z,100359.75
2023-01-13T00:46:00.673Z,100365.94
2023-01-13T00:48:28.768Z,100353.72
2023-01-13T00:51:00.384Z,100359.91
2023-01-13T00:53:28.731Z,100348.22
2023-01-13T00:56:03.734Z,100351.06
2023-01-13T00:58:32.641Z,100344.69
2023-01-13T01:01:03.960Z,100343.03
2023-01-13T01:03:31.152Z,100327.81
2023-01-13T01:06:05.180Z,100330.66
2023-01-13T01:08:31.736Z,100325.31
2023-01-13T01:11:06.427Z,100328.97
2023-01-13T01:13:33.267Z,100312.91
2023-01-13T01:16:00.129Z,100311.25
2023-01-13T01:18:26.677Z,100298.88
2023-01-13T01:20:53.158Z,100310.56
2023-01-13T01:23:19.677Z,100314.22
2023-01-13T01:25:46.144Z,100324.78
2023-01-13T01:28:13.803Z,100331.28
2023-01-13T01:30:40.311Z,100326.91
2023-01-13T01:33:06.861Z,100333.28
2023-01-13T01:35:33.333Z,100336.91
2023-01-13T01:37:59.832Z,100330.72
2023-01-13T01:40:27.554Z,100343.25
2023-01-13T01:43:12.651Z,100352.13
2023-01-13T01:45:39.137Z,100337.25
2023-01-13T01:48:07.715Z,100335.53
2023-01-13T01:50:35.322Z,100334.72
2023-01-13T01:53:15.989Z,100329.53
2023-01-13T01:55:42.697Z,100327.69
2023-01-13T01:58:28.365Z,100305.78
2023-01-13T02:00:54.901Z,100307.44
2023-01-13T02:03:21.579Z,100312.78
2023-01-13T02:05:48.167Z,100307.59
2023-01-13T02:08:15.449Z,100310.28
2023-01-13T02:10:45.646Z,100316.75
2023-01-13T02:13:13.735Z,100307.78
2023-01-13T02:15:53.922Z,100307.06
2023-01-13T02:18:29.320Z,100307.91
2023-01-13T02:21:07.999Z,100304.41
2023-01-13T02:24:14.819Z,100295.53
2023-01-13T02:26:59.846Z,100303.72
2023-01-13T02:30:12.770Z,100291.88
2023-01-13T02:32:55.379Z,100292.03
2023-01-13T02:35:27.950Z,100276.66
2023-01-13T02:37:57.174Z,100282.84
2023-01-13T02:40:31.723Z,100279.50
2023-01-13T02:43:23.040Z,100279.50
2023-01-13T02:45:56.850Z,100279.50
2023-01-13T02:48:24.136Z,100280.63
2023-01-13T02:50:56.498Z,100284.00
2023-01-13T02:53:35.755Z,100281.47
2023-01-13T02:56:05.210Z,100284.00
2023-01-13T02:58:36.179Z,100296.53
2023-01-13T03:01:02.952Z,100284.16
2023-01-13T03:03:29.492Z,100295.72
2023-01-13T03:06:30.166Z,100289.66
2023-01-13T03:09:26.317Z,100296.84
2023-01-13T03:12:02.091Z,100281.63
2023-01-13T03:15:04.009Z,100284.31
2023-01-13T03:17:41.147Z,100286.97
2023-01-13T03:20:24.119Z,100274.63
2023-01-13T03:22:55.582Z,100270.94
2023-01-13T03:25:24.137Z,100284.47
2023-01-13T03:27:58.545Z,100277.44
2023-01-13T03:30:36.405Z,100283.59
2023-01-13T03:33:09.657Z,100279.97
2023-01-13T03:35:46.001Z,100281.94
2023-01-13T03:38:24.032Z,100272.09
2023-01-13T03:40:54.793Z,100262.41
2023-01-13T03:43:47.299Z,100261.56
2023-01-13T03:46:44.438Z,100250.88
2023-01-13T03:49:17.297Z,100256.88
2023-01-13T03:51:50.936Z,100267.56
2023-01-13T03:54:19.585Z,100273.78
2023-01-13T03:56:51.012Z,100268.28
2023-01-13T03:59:23.854Z,100265.78
2023-01-13T04:01:54.528Z,100285.31
2023-01-13T04:04:35.727Z,100270.41
2023-01-13T04:07:35.312Z,100281.09
2023-01-13T04:10:06.273Z,100281.09
2023-01-13T04:13:02.563Z,100277.44
2023-01-13T04:15:36.373Z,100276.91
2023-01-13T04:18:22.988Z,100262.88
2023-01-13T04:20:51.915Z,100273.91
2023-01-13T04:23:19.538Z,100283.94
2023-01-13T04:25:46.801Z,100281.41
2023-01-13T04:28:14.918Z,100275.22
2023-01-13T04:33:09.335Z,100263.88
2023-01-13T04:35:36.490Z,100263.03
2023-01-13T04:38:10.053Z,100264.84
2023-01-13T04:40:36.631Z,100255.97
2023-01-13T04:43:04.037Z,100267.50
2023-01-13T04:45:30.766Z,100271.19
2023-01-13T04:47:57.299Z,100277.53
2023-01-13T04:50:24.060Z,100272.19
2023-01-13T04:52:51.575Z,100274.84
2023-01-13T04:55:19.061Z,100272.19
2023-01-13T04:57:45.644Z,100279.19
2023-01-13T05:00:14.753Z,100288.06
2023-01-13T05:02:41.458Z,100284.53
2023-01-13T05:05:08.620Z,100266.84
2023-01-13T05:07:35.361Z,100272.19
2023-01-13T05:10:01.912Z,100273.19
2023-01-13T05:12:46.876Z,100266.00
2023-01-13T05:15:33.243Z,100273.00
2023-01-13T05:18:01.138Z,100272.00
2023-01-13T05:20:28.047Z,100285.38
2023-01-13T05:23:13.097Z,100283.53
2023-01-13T05:25:44.205Z,100285.25
2023-01-13T05:28:10.955Z,100289.59
2023-01-13T05:30:42.297Z,100292.25
2023-01-13T05:33:14.967Z,100288.75
2023-01-13T05:35:43.008Z,100285.06
2023-01-13T05:38:10.311Z,100294.94
2023-01-13T05:40:59.463Z,100283.25
2023-01-13T05:43:26.796Z,100287.75
2023-01-13T05:46:09.422Z,100287.75
2023-01-13T05:48:38.778Z,100284.25
2023-01-13T05:51:07.828Z,100290.44
2023-01-13T05:53:34.819Z,100281.56
2023-01-13T05:56:04.422Z,100279.06
2023-01-13T05:58:31.263Z,100291.44
2023-01-13T06:01:11.189Z,100286.91
2023-01-13T06:03:38.382Z,100295.09
2023-01-13T06:06:05.203Z,100286.09
2023-01-13T06:08:32.281Z,100292.44
2023-01-13T06:10:58.958Z,100301.41
2023-01-13T06:13:25.797Z,100288.88
2023-01-13T06:15:56.522Z,100297.06
2023-01-13T06:18:23.673Z,100300.56
2023-01-13T06:20:50.161Z,100293.41
2023-01-13T06:23:16.676Z,100293.41
2023-01-13T06:26:01.541Z,100297.91
2023-01-13T06:28:28.380Z,100300.56
2023-01-13T06:31:00.600Z,100299.75
2023-01-13T06:33:33.473Z,100303.25
2023-01-13T06:36:03.177Z,100314.78
2023-01-13T06:38:33.218Z,100307.59
2023-01-13T06:40:59.989Z,100320.81
2023-01-13T06:43:26.571Z,100311.81
2023-01-13T06:45:55.111Z,100327.69
2023-01-13T06:48:27.937Z,100321.50
2023-01-13T06:50:54.488Z,100326.72
2023-01-13T06:53:21.333Z,100325.72
2023-01-13T06:55:47.971Z,100317.69
2023-01-13T06:58:14.506Z,100313.34
2023-01-13T07:00:41.614Z,100328.38
2023-01-13T07:03:18.394Z,100331.22
2023-01-13T07:05:53.598Z,100319.66
2023-01-13T07:08:20.603Z,100325.72
2023-01-13T07:10:47.187Z,100309.84
2023-01-13T07:13:32.561Z,100322.19
2023-01-13T07:16:04.882Z,100325.88
2023-01-13T07:18:33.015Z,100322.19
2023-01-13T07:21:01.983Z,100328.53
2023-01-13T07:23:33.446Z,100344.41
2023-01-13T07:26:00.507Z,100321.38
2023-01-13T07:28:28.583Z,100328.53
2023-01-13T07:30:55.265Z,100325.00
2023-01-13T07:33:22.139Z,100327.69
2023-01-13T07:35:49.484Z,100326.84
2023-01-13T07:38:16.069Z,100322.34
2023-01-13T07:40:42.617Z,100333.03
2023-01-13T07:43:30.722Z,100334.03
2023-01-13T07:45:58.762Z,100330.34
2023-01-13T07:48:26.857Z,100341.03
2023-01-13T07:50:54.076Z,100350.75
2023-01-13T07:53:21.321Z,100348.94
2023-01-13T07:55:48.855Z,100359.63
2023-01-13T07:58:15.447Z,100364.97
2023-01-13T08:00:42.019Z,100368.47
2023-01-13T08:03:08.688Z,100358.78
2023-01-13T08:05:36.171Z,100364.97
2023-01-13T08:08:02.679Z,100362.28
2023-01-13T08:10:29.484Z,100371.81
2023-01-13T08:13:14.644Z,100379.84
2023-01-13T08:15:41.354Z,100389.69
2023-01-13T08:18:07.885Z,100393.19
2023-01-13T08:20:34.725Z,100395.75
2023-01-13T08:23:01.297Z,100390.41
2023-01-13T08:25:29.366Z,100408.09
2023-01-13T08:27:56.239Z,100406.28
2023-01-13T08:30:23.045Z,100403.59
2023-01-13T08:32:50.579Z,100404.44
2023-01-13T08:35:17.676Z,100404.59
2023-01-13T08:37:45.995Z,100413.44
2023-01-13T08:40:13.809Z,100408.94
2023-01-13T08:42:40.491Z,100409.94
2023-01-13T08:45:08.944Z,100408.94
2023-01-13T08:47:35.677Z,100402.75
2023-01-13T08:50:02.567Z,100400.94
2023-01-13T08:52:30.068Z,100411.63
2023-01-13T08:54:56.970Z,100424.97
2023-01-13T08:57:23.533Z,100420.63
2023-01-13T08:59:50.403Z,100427.66
2023-01-13T09:02:20.290Z,100426.81
2023-01-13T09:04:48.210Z,100422.31
2023-01-13T09:07:14.872Z,100420.47
2023-01-13T09:09:41.968Z,100429.50
2023-01-13T09:12:30.181Z,100421.47
2023-01-13T09:14:56.849Z,100430.34
2023-01-13T09:17:23.388Z,100427.66
2023-01-13T09:19:50.045Z,100440.06
2023-01-13T09:22:18.689Z,100434.72
2023-01-13T09:24:46.066Z,100441.72
2023-01-13T09:27:14.852Z,100446.06
2023-01-13T09:29:42.117Z,100452.25
2023-01-13T09:32:12.407Z,100454.09
2023-01-13T09:34:57.792Z,100445.06
2023-01-13T09:37:24.381Z,100461.81
2023-01-13T09:39:50.985Z,100460.00
2023-01-13T09:42:57.266Z,100455.63
2023-01-13T09:45:32.599Z,100458.16
2023-01-13T09:48:34.154Z,100466.16
2023-01-13T09:51:18.630Z,100467.16
2023-01-13T09:53:55.950Z,100470.69
2023-01-13T09:56:26.379Z,100475.88
2023-01-13T09:58:52.904Z,100479.38
2023-01-13T10:01:37.908Z,100484.88
2023-01-13T10:04:11.672Z,100492.75
2023-01-13T10:06:39.639Z,100492.91
2023-01-13T10:09:06.377Z,100501.31
2023-01-13T10:11:58.160Z,100496.97
2023-01-13T10:14:28.226Z,100504.97
2023-01-13T10:17:17.922Z,100511.16
2023-01-13T10:19:56.561Z,100523.69
2023-01-13T10:22:57.973Z,100526.38
2023-01-13T10:25:43.233Z,100526.22
2023-01-13T10:28:14.828Z,100530.72
2023-01-13T10:30:46.391Z,100536.91
2023-01-13T10:33:27.775Z,100547.59
2023-01-13T10:36:03.381Z,100540.44
2023-01-13T10:38:35.930Z,100543.81
2023-01-13T10:41:05.583Z,100533.09
2023-01-13T10:43:32.450Z,100549.00
2023-01-13T10:46:00.616Z,100536.50
2023-01-13T10:49:00.685Z,100541.84
2023-01-13T10:51:45.164Z,100550.53
2023-01-13T10:54:11.817Z,100561.94
2023-01-13T10:56:40.289Z,100543.22
2023-01-13T10:59:13.504Z,100553.91
2023-01-13T11:01:42.753Z,100564.63
2023-01-13T11:04:43.301Z,100568.25
2023-01-13T11:07:34.583Z,100576.28
2023-01-13T11:10:24.614Z,100566.41
2023-01-13T11:12:58.954Z,100567.13
2023-01-13T11:15:38.217Z,100583.16
2023-01-13T11:18:16.825Z,100574.16
2023-01-13T11:20:46.339Z,100577.66
2023-01-13T11:23:37.066Z,100573.31
2023-01-13T11:26:21.705Z,100570.34
2023-01-13T11:29:05.654Z,100573.03
2023-01-13T11:31:42.760Z,100597.78
2023-01-13T11:34:35.824Z,100587.91
2023-01-13T11:37:09.603Z,100594.13
2023-01-13T11:39:44.202Z,100599.59
2023-01-13T11:42:30.121Z,100607.34
2023-01-13T11:45:30.766Z,100607.63
2023-01-13T11:48:00.092Z,100597.78
2023-01-13T11:50:48.042Z,100599.47
2023-01-13T11:53:45.730Z,100611.13
2023-01-13T11:56:49.466Z,100603.13
2023-01-13T11:59:25.212Z,100607.34
2023-01-13T12:02:04.842Z,100619.03
2023-01-13T12:04:53.016Z,100617.31
2023-01-13T12:07:52.809Z,100631.41
2023-01-13T12:10:37.182Z,100621.56
2023-01-13T12:13:22.054Z,100633.94
2023-01-13T12:16:00.749Z,100630.28
2023-01-13T12:18:59.731Z,100636.59
2023-01-13T12:21:30.450Z,100639.16
2023-01-13T12:24:39.099Z,100638.44
2023-01-13T12:27:09.900Z,100645.34
2023-01-13T12:29:38.157Z,100656.88
2023-01-13T12:32:14.710Z,100628.44
2023-01-13T12:34:54.430Z,100665.06
2023-01-13T12:37:39.049Z,100673.91
2023-01-13T12:40:34.264Z,100660.69
2023-01-13T12:43:40.144Z,100673.91
2023-01-13T12:46:18.639Z,100683.63
2023-01-13T12:48:52.992Z,100666.72
2023-01-13T12:51:36.563Z,100665.91
2023-01-13T12:54:37.612Z,100675.75
2023-01-13T12:57:16.271Z,100668.41
2023-01-13T12:59:48.870Z,100695.03
2023-01-13T13:02:15.939Z,100687.84
2023-01-13T13:04:48.445Z,100702.19
2023-01-13T13:07:18.654Z,100696.84
2023-01-13T13:09:52.217Z,100702.91
2023-01-13T13:13:00.691Z,100713.59
2023-01-13T13:15:35.258Z,100724.00
2023-01-13T13:18:02.427Z,100722.19
2023-01-13T13:21:09.037Z,100738.34
2023-01-13T13:23:44.394Z,100726.53
2023-01-13T13:26:31.670Z,100726.69
2023-01-13T13:29:27.321Z,100738.22
2023-01-13T13:32:15.446Z,100737.06
2023-01-13T13:35:23.228Z,100745.09
2023-01-13T13:38:30.467Z,100744.97
2023-01-13T13:41:15.692Z,100748.50
2023-01-13T13:44:03.513Z,100752.16
2023-01-13T13:46:47.402Z,100761.88
2023-01-13T13:49:19.289Z,100756.50
2023-01-13T13:52:21.244Z,100778.06
2023-01-13T13:54:52.690Z,100784.09
2023-01-13T13:57:23.175Z,100781.44
2023-01-13T13:59:55.035Z,100786.78
2023-01-13T14:02:34.448Z,100803.00
2023-01-13T14:05:17.335Z,100802.00
2023-01-13T14:07:46.732Z,100812.53
2023-01-13T14:10:24.739Z,100811.69
2023-01-13T14:12:52.310Z,100819.72
2023-01-13T14:15:35.521Z,100814.53
2023-01-13T14:18:06.171Z,100829.59
2023-01-13T14:20:34.537Z,100828.75
2023-01-13T14:23:01.766Z,100826.91
2023-01-13T14:25:34.127Z,100836.94
2023-01-13T14:28:14.238Z,100843.13
2023-01-13T14:30:42.156Z,100845.66
2023-01-13T14:33:17.278Z,100844.97
2023-01-13T14:36:11.513Z,100850.44
2023-01-13T14:38:38.530Z,100851.16
2023-01-13T14:41:28.120Z,100861.13
2023-01-13T14:43:57.936Z,100852.13
2023-01-13T14:46:25.662Z,100861.84
2023-01-13T14:48:59.737Z,100861.00
2023-01-13T14:51:29.061Z,100862.69
2023-01-13T14:53:55.764Z,100867.19
2023-01-13T14:56:42.102Z,100884.22
2023-01-13T14:59:46.613Z,100882.41
2023-01-13T15:02:25.235Z,100896.63
2023-01-13T15:04:58.670Z,100901.81
2023-01-13T15:07:28.591Z,100901.97
2023-01-13T15:09:58.443Z,100906.34
2023-01-13T15:12:39.667Z,100905.63
2023-01-13T15:15:26.571Z,100931.41
2023-01-13T15:17:53.601Z,100922.38
2023-01-13T15:20:22.191Z,100943.78
2023-01-13T15:22:49.047Z,100942.13
2023-01-13T15:25:15.845Z,100942.13
2023-01-13T15:27:45.044Z,100952.94
2023-01-13T15:30:25.034Z,100954.78
2023-01-13T15:32:52.867Z,100958.28
2023-01-13T15:35:20.673Z,100965.47
2023-01-13T15:37:48.904Z,100966.47
2023-01-13T15:40:25.421Z,100967.47
2023-01-13T15:43:10.903Z,100971.97
2023-01-13T15:45:56.223Z,100982.66
2023-01-13T15:48:24.481Z,100985.34
2023-01-13T15:50:51.091Z,101003.19
2023-01-13T15:53:18.097Z,101007.84
2023-01-13T15:55:47.093Z,101013.22
2023-01-13T15:58:14.747Z,101013.22
2023-01-13T16:00:42.351Z,101014.06
2023-01-13T16:03:16.269Z,101015.03
2023-01-13T16:05:43.821Z,101013.91
2023-01-13T16:08:18.325Z,101018.56
2023-01-13T16:10:45.608Z,101030.94
2023-01-13T16:13:13.168Z,101037.97
2023-01-13T16:15:49.426Z,101028.25
2023-01-13T16:18:18.801Z,101037.97
2023-01-13T16:20:45.672Z,101040.66
2023-01-13T16:23:12.791Z,101041.53
2023-01-13T16:25:40.407Z,101037.97
2023-01-13T16:28:07.187Z,101059.38
2023-01-13T16:30:36.280Z,101056.72
2023-01-13T16:33:03.824Z,101054.91
2023-01-13T16:35:32.186Z,101079.81
2023-01-13T16:37:59.824Z,101088.81
2023-01-13T16:40:31.083Z,101083.47
2023-01-13T16:42:58.048Z,101079.09
2023-01-13T16:45:25.113Z,101089.81
2023-01-13T16:47:51.725Z,101105.16
2023-01-13T16:50:28.247Z,101087.38
2023-01-13T16:52:54.748Z,101103.44
2023-01-13T16:55:21.446Z,101089.38
2023-01-13T16:57:47.951Z,101100.06
2023-01-13T17:00:15.067Z,101092.03
2023-01-13T17:02:41.728Z,101119.78
2023-01-13T17:05:12.047Z,101116.28
2023-01-13T17:07:39.582Z,101135.94
2023-01-13T17:10:06.529Z,101138.63
2023-01-13T17:12:33.086Z,101157.34
2023-01-13T17:14:59.623Z,101144.81
2023-01-13T17:17:27.919Z,101133.44
2023-01-13T17:19:55.179Z,101150.47
2023-01-13T17:22:22.270Z,101129.06
2023-01-13T17:24:48.976Z,101123.97
2023-01-13T17:27:17.256Z,101132.84
2023-01-13T17:29:44.144Z,101140.03
2023-01-13T17:32:18.578Z,101146.47
2023-01-13T17:34:45.685Z,101139.19
2023-01-13T17:37:15.592Z,101144.53
2023-01-13T17:39:44.289Z,101145.50
2023-01-13T17:42:12.143Z,101143.69
2023-01-13T17:44:39.197Z,101150.72
2023-01-13T17:47:05.972Z,101150.84
2023-01-13T17:49:32.901Z,101156.06
2023-01-13T17:51:59.560Z,101150.72
2023-01-13T17:54:26.134Z,101159.59
2023-01-13T17:56:52.688Z,101150.72
2023-01-13T17:59:19.993Z,101150.72
2023-01-13T18:01:46.599Z,101150.00
2023-01-13T18:04:18.355Z,101159.75
2023-01-13T18:06:45.489Z,101162.41
2023-01-13T18:09:12.366Z,101177.47
2023-01-13T18:11:39.100Z,101167.75
2023-01-13T18:14:05.713Z,101173.97
2023-01-13T18:16:33.064Z,101177.59
2023-01-13T18:19:17.966Z,101199.88
2023-01-13T18:22:04.032Z,101196.31
2023-01-13T18:24:49.275Z,101205.31
2023-01-13T18:27:22.693Z,101189.28
2023-01-13T18:29:55.835Z,101200.81
2023-01-13T18:32:26.475Z,101201.81
2023-01-13T18:35:04.778Z,101199.13
2023-01-13T18:37:32.224Z,101218.69
2023-01-13T18:39:58.734Z,101210.81
2023-01-13T18:42:43.925Z,101223.22
2023-01-13T18:45:10.865Z,101230.38
2023-01-13T18:47:39.251Z,101229.53
2023-01-13T18:50:06.180Z,101236.56
2023-01-13T18:52:32.707Z,101233.06
2023-01-13T18:54:59.231Z,101246.28
2023-01-13T18:57:25.757Z,101255.16
2023-01-13T18:59:52.258Z,101257.97
2023-01-13T19:02:20.722Z,101259.56
2023-01-13T19:04:47.730Z,101265.75
2023-01-13T19:07:22.082Z,101258.72
2023-01-13T19:09:50.009Z,101260.41
2023-01-13T19:12:25.800Z,101250.69
2023-01-13T19:14:57.000Z,101260.41
2023-01-13T19:17:25.778Z,101272.09
2023-01-13T19:19:54.927Z,101265.00
2023-01-13T19:22:28.555Z,101265.84
2023-01-13T19:24:55.507Z,101270.38
2023-01-13T19:27:22.196Z,101273.88
2023-01-13T19:29:52.358Z,101267.84
2023-01-13T19:32:21.987Z,101272.19
2023-01-13T19:34:50.914Z,101282.03
2023-01-13T19:37:18.568Z,101295.41
2023-01-13T19:39:45.151Z,101275.84
2023-01-13T19:42:31.469Z,101287.41
2023-01-13T19:45:16.345Z,101283.03
2023-01-13T19:47:45.339Z,101293.72
2023-01-13T19:50:12.758Z,101308.94
2023-01-13T19:52:39.307Z,101310.78
2023-01-13T19:55:06.304Z,101317.91
2023-01-13T19:57:32.822Z,101329.50
2023-01-13T19:59:59.398Z,101313.44
2023-01-13T20:02:28.827Z,101320.59
2023-01-13T20:04:56.974Z,101315.25
2023-01-13T20:07:25.067Z,101340.28
2023-01-13T20:09:52.655Z,101334.94
2023-01-13T20:12:21.085Z,101337.63
2023-01-13T20:14:48.129Z,101333.25
2023-01-13T20:17:17.044Z,101342.13
2023-01-13T20:19:43.598Z,101335.94
2023-01-13T20:22:10.679Z,101331.56
2023-01-13T20:24:37.495Z,101329.75
2023-01-13T20:27:04.797Z,101332.53
2023-01-13T20:29:32.336Z,101335.09
2023-01-13T20:31:59.508Z,101345.78
2023-01-13T20:34:26.504Z,101348.56
2023-01-13T20:36:53.367Z,101356.75
2023-01-13T20:39:23.443Z,101359.41
2023-01-13T20:42:08.593Z,101365.75
2023-01-13T20:44:35.580Z,101371.09
2023-01-13T20:47:03.158Z,101372.09
2023-01-13T20:49:30.373Z,101386.28
2023-01-13T20:51:57.480Z,101389.94
2023-01-13T20:54:24.736Z,101390.81
2023-01-13T20:56:51.505Z,101398.81
2023-01-13T20:59:18.142Z,101405.97
2023-01-13T21:01:44.781Z,101406.84
2023-01-13T21:04:11.419Z,101397.00
2023-01-13T21:06:38.144Z,101393.47
2023-01-13T21:09:04.764Z,101396.16
2023-01-13T21:11:49.755Z,101405.13
2023-01-13T21:14:39.206Z,101410.47
2023-01-13T21:17:06.748Z,101404.16
2023-01-13T21:19:33.768Z,101410.47
2023-01-13T21:22:00.345Z,101404.28
2023-01-13T21:24:27.057Z,101403.44
2023-01-13T21:26:57.603Z,101414.13
2023-01-13T21:29:24.239Z,101409.63
2023-01-13T21:31:50.899Z,101421.16
2023-01-13T21:34:17.510Z,101420.47
2023-01-13T21:36:44.090Z,101423.00
2023-01-13T21:39:11.089Z,101423.13
2023-01-13T21:41:56.381Z,101417.78
2023-01-13T21:44:41.841Z,101424.13
2023-01-13T21:47:36.038Z,101429.47
2023-01-13T21:50:04.034Z,101436.63
2023-01-13T21:52:30.548Z,101437.50
2023-01-13T21:55:15.707Z,101440.16
2023-01-13T21:57:46.179Z,101440.16
2023-01-13T22:00:13.088Z,101441.97
2023-01-13T22:02:39.770Z,101450.00
2023-01-13T22:05:08.476Z,101458.88
2023-01-13T22:07:36.634Z,101464.25
2023-01-13T22:10:04.845Z,101456.31
2023-01-13T22:12:31.456Z,101461.56
2023-01-13T22:14:58.083Z,101467.88
2023-01-13T22:17:27.243Z,101473.09
2023-01-13T22:19:57.117Z,101464.25
2023-01-13T22:22:25.566Z,101481.13
2023-01-13T22:24:53.321Z,101481.97
2023-01-13T22:27:23.269Z,101478.44
2023-01-13T22:29:50.936Z,101465.09
2023-01-13T22:32:18.148Z,101469.59
2023-01-13T22:34:44.749Z,101467.88
2023-01-13T22:37:11.937Z,101467.00
2023-01-13T22:39:38.962Z,101471.38
2023-01-13T22:42:06.369Z,101470.53
2023-01-13T22:44:33.957Z,101467.00
2023-01-13T22:47:00.499Z,101478.69
2023-01-13T22:49:27.283Z,101487.56
2023-01-13T22:51:54.440Z,101476.88
2023-01-13T22:54:20.975Z,101486.59
2023-01-13T22:56:47.488Z,101487.56
2023-01-13T22:59:14.722Z,101484.88
2023-01-13T23:01:42.212Z,101491.94
2023-01-13T23:04:13.366Z,101494.59
2023-01-13T23:06:40.478Z,101491.09
2023-01-13T23:09:07.597Z,101498.13
2023-01-13T23:11:34.382Z,101491.94
2023-01-13T23:14:04.499Z,101490.09
2023-01-13T23:16:34.733Z,101485.50
2023-01-13T23:19:01.558Z,101473.94
2023-01-13T23:21:33.683Z,101473.94
2023-01-13T23:24:00.582Z,101481.00
2023-01-13T23:26:28.105Z,101471.13
2023-01-13T23:28:58.719Z,101468.47
2023-01-13T23:31:25.295Z,101471.97
2023-01-13T23:33:51.812Z,101460.34
2023-01-13T23:36:21.747Z,101467.47
2023-01-13T23:38:48.538Z,101473.81
2023-01-13T23:41:17.511Z,101475.50
2023-01-13T23:43:48.859Z,101474.66
2023-01-13T23:46:16.807Z,101471.97
2023-01-13T23:48:43.390Z,101471.97
2023-01-13T23:51:12.988Z,101479.31
2023-01-13T23:53:42.509Z,101477.47
2023-01-13T23:56:20.266Z,101481.97
2023-01-13T23:58:47.813Z,101475.78
